createdAt,value
2023-03-12T15:46:32.062Z,27.58
2023-03-12T15:49:00.287Z,22.15
2023-03-12T15:51:29.158Z,19.70
2023-03-12T15:54:00.240Z,17.81
2023-03-12T15:56:27.929Z,18.32
2023-03-12T15:59:03.299Z,16.75
2023-03-12T16:01:44.142Z,17.94
2023-03-12T16:04:12.185Z,17.84
2023-03-12T16:06:40.084Z,18.35
2023-03-12T16:09:07.696Z,18.09
2023-03-12T16:11:37.081Z,17.31
2023-03-12T16:14:05.998Z,16.54
2023-03-12T16:16:35.043Z,17.01
2023-03-12T16:19:03.182Z,16.84
2023-03-12T16:21:30.888Z,17.01
2023-03-12T16:23:58.552Z,16.56
2023-03-12T16:26:26.242Z,16.79
2023-03-12T16:28:53.867Z,17.30
2023-03-12T16:31:21.540Z,17.70
2023-03-12T16:33:50.617Z,17.84
2023-03-12T16:36:19.171Z,15.61
2023-03-12T16:38:46.806Z,15.67
2023-03-12T16:41:15.140Z,16.47
2023-03-12T16:43:42.852Z,15.91
2023-03-12T16:46:10.995Z,17.08
2023-03-12T16:48:38.767Z,18.54
2023-03-12T16:51:12.493Z,18.89
2023-03-12T16:53:40.135Z,17.60
2023-03-12T16:56:07.837Z,18.08
2023-03-12T16:58:35.494Z,19.13
2023-03-12T17:01:03.221Z,19.32
2023-03-12T17:03:35.484Z,17.83
2023-03-12T17:06:03.925Z,18.99
2023-03-12T17:08:32.936Z,18.50
2023-03-12T17:11:00.626Z,18.07
2023-03-12T17:13:29.132Z,19.10
2023-03-12T17:15:57.092Z,19.14
2023-03-12T17:18:24.816Z,17.12
2023-03-12T17:20:52.660Z,17.16
2023-03-12T17:23:20.452Z,16.51
2023-03-12T17:25:49.465Z,16.03
2023-03-12T17:28:17.155Z,17.14
2023-03-12T17:30:44.924Z,15.95
2023-03-12T17:33:13.780Z,17.67
2023-03-12T17:35:41.526Z,17.43
2023-03-12T17:38:09.438Z,16.21
2023-03-12T17:40:40.084Z,15.83
2023-03-12T17:43:09.076Z,14.77
2023-03-12T17:45:37.031Z,17.09
2023-03-12T17:48:04.693Z,15.23
2023-03-12T17:50:32.383Z,16.40
2023-03-12T17:52:59.975Z,17.30
2023-03-12T17:55:27.616Z,15.83
2023-03-12T17:57:55.230Z,17.26
2023-03-12T18:00:24.334Z,17.22
2023-03-12T18:02:51.958Z,17.10
2023-03-12T18:05:19.736Z,17.85
2023-03-12T18:07:48.066Z,16.59
2023-03-12T18:10:15.714Z,16.31
2023-03-12T18:12:43.348Z,15.76
2023-03-12T18:15:12.376Z,17.09
2023-03-12T18:17:41.551Z,17.06
2023-03-12T18:20:13.347Z,17.62
2023-03-12T18:22:40.931Z,17.05
2023-03-12T18:25:09.163Z,17.45
2023-03-12T18:27:36.850Z,18.46
2023-03-12T18:30:05.735Z,18.23
2023-03-12T18:32:34.929Z,16.24
2023-03-12T18:35:03.915Z,17.94
2023-03-12T18:37:32.001Z,16.37
2023-03-12T18:39:59.632Z,17.23
2023-03-12T18:42:27.278Z,17.26
2023-03-12T18:44:54.866Z,17.71
2023-03-12T18:47:22.509Z,17.61
2023-03-12T18:49:52.951Z,16.72
2023-03-12T18:52:22.178Z,17.69
2023-03-12T18:54:49.789Z,17.91
2023-03-12T18:57:17.428Z,17.40
2023-03-12T18:59:45.217Z,17.20
2023-03-12T19:02:13.038Z,17.93
2023-03-12T19:04:40.660Z,16.84
2023-03-12T19:07:08.431Z,15.94
2023-03-12T19:09:37.425Z,17.60
2023-03-12T19:12:05.187Z,17.52
2023-03-12T19:14:32.807Z,17.06
2023-03-12T19:17:00.421Z,17.64
2023-03-12T19:19:28.023Z,17.26
2023-03-12T19:21:57.112Z,16.86
2023-03-12T19:24:24.736Z,16.89
2023-03-12T19:26:53.702Z,16.87
2023-03-12T19:29:21.339Z,16.15
2023-03-12T19:31:49.024Z,17.29
2023-03-12T19:34:17.214Z,17.33
2023-03-12T19:36:44.966Z,17.32
2023-03-12T19:39:21.159Z,17.48
2023-03-12T19:41:49.425Z,16.96
2023-03-12T19:44:18.414Z,15.61
2023-03-12T19:46:46.042Z,17.23
2023-03-12T19:49:13.659Z,16.61
2023-03-12T19:51:41.327Z,17.41
2023-03-12T19:54:08.974Z,17.26
2023-03-12T19:56:36.688Z,16.79
2023-03-12T19:59:04.310Z,16.89
2023-03-12T20:01:33.750Z,17.73
2023-03-12T20:04:01.328Z,17.06
2023-03-12T20:06:28.910Z,17.57
2023-03-12T20:08:56.541Z,17.33
2023-03-12T20:11:24.146Z,16.98
2023-03-12T20:13:51.802Z,17.29
2023-03-12T20:16:20.058Z,16.30
2023-03-12T20:18:49.103Z,16.88
2023-03-12T20:21:16.693Z,17.39
2023-03-12T20:23:44.330Z,16.13
2023-03-12T20:26:11.940Z,16.38
2023-03-12T20:28:39.542Z,16.97
2023-03-12T20:31:10.070Z,15.94
2023-03-12T20:33:37.688Z,15.92
2023-03-12T20:36:07.763Z,17.30
2023-03-12T20:38:35.369Z,17.69
2023-03-12T20:41:03.271Z,16.69
2023-03-12T20:43:30.959Z,16.38
2023-03-12T20:45:58.652Z,15.70
2023-03-12T20:48:26.502Z,16.58
2023-03-12T20:50:54.136Z,17.28
2023-03-12T20:53:23.111Z,17.76
2023-03-12T20:55:50.718Z,16.28
2023-03-12T20:58:18.338Z,17.66
2023-03-12T21:00:46.013Z,16.78
2023-03-12T21:03:13.899Z,17.48
2023-03-12T21:05:41.571Z,18.07
2023-03-12T21:08:09.163Z,17.91
2023-03-12T21:10:38.542Z,18.64
2023-03-12T21:13:06.142Z,18.73
2023-03-12T21:15:33.748Z,19.19
2023-03-12T21:18:01.377Z,18.85
2023-03-12T21:20:29.006Z,19.79
2023-03-12T21:22:56.898Z,17.99
2023-03-12T21:25:24.609Z,17.14
2023-03-12T21:27:53.634Z,17.53
2023-03-12T21:30:21.385Z,17.95
2023-03-12T21:32:49.116Z,19.55
2023-03-12T21:35:16.958Z,18.59
2023-03-12T21:37:44.599Z,20.21
2023-03-12T21:40:12.924Z,19.70
2023-03-12T21:42:40.592Z,18.34
2023-03-12T21:45:10.669Z,17.99
2023-03-12T21:47:38.309Z,19.52
2023-03-12T21:50:06.285Z,19.96
2023-03-12T21:52:41.297Z,19.27
2023-03-12T21:55:11.080Z,18.07
2023-03-12T21:57:38.706Z,19.74
2023-03-12T22:00:11.117Z,18.30
2023-03-12T22:02:40.138Z,19.46
2023-03-12T22:05:08.397Z,18.74
2023-03-12T22:07:36.075Z,18.47
2023-03-12T22:10:04.027Z,19.07
2023-03-12T22:12:31.663Z,20.00
2023-03-12T22:14:59.245Z,19.43
2023-03-12T22:17:27.622Z,19.85
2023-03-12T22:19:56.540Z,19.52
2023-03-12T22:22:24.142Z,19.60
2023-03-12T22:24:51.730Z,18.99
2023-03-12T22:27:19.387Z,20.45
2023-03-12T22:29:46.972Z,20.29
2023-03-12T22:32:14.578Z,18.97
2023-03-12T22:34:42.479Z,18.74
2023-03-12T22:37:11.485Z,19.81
2023-03-12T22:39:40.832Z,19.83
2023-03-12T22:42:08.448Z,19.02
2023-03-12T22:44:39.291Z,20.62
2023-03-12T22:47:06.964Z,19.82
2023-03-12T22:49:34.566Z,18.61
2023-03-12T22:52:02.270Z,18.93
2023-03-12T22:54:31.288Z,19.37
2023-03-12T22:56:58.885Z,18.27
2023-03-12T22:59:26.491Z,18.92
2023-03-12T23:01:54.081Z,19.04
2023-03-12T23:04:21.859Z,18.31
2023-03-12T23:06:49.595Z,18.50
2023-03-12T23:09:17.356Z,19.13
2023-03-12T23:11:46.333Z,20.26
2023-03-12T23:14:14.000Z,20.82
2023-03-12T23:16:41.664Z,19.78
2023-03-12T23:19:09.372Z,19.75
2023-03-12T23:21:36.980Z,19.93
2023-03-12T23:24:04.758Z,18.89
2023-03-12T23:26:32.815Z,18.75
2023-03-12T23:29:01.776Z,18.46
2023-03-12T23:31:29.788Z,18.43
2023-03-12T23:33:58.396Z,19.37
2023-03-12T23:36:26.418Z,20.05
2023-03-12T23:38:54.052Z,20.72
2023-03-12T23:41:22.310Z,20.17
2023-03-12T23:43:50.075Z,20.07
2023-03-12T23:46:19.437Z,20.70
2023-03-12T23:48:47.257Z,20.98
2023-03-12T23:51:15.531Z,20.39
2023-03-12T23:53:43.595Z,21.26
2023-03-12T23:56:11.959Z,20.58
2023-03-12T23:58:39.664Z,19.95
